Palmyra, Tennessee
Current Conditions -  °F | °C
As of 12:52 AM on Saturday 25 Oct 2014 (Local Time) from KCKV Reporting Station
Moderate Fog Moderate Fog  
Wind Chill: 48°   Ceiling: Unl
Heat Index: 48°   Visibility: 0.25mi
Dew Point: 47°   Wind: 0mph
Humidity: 96%   Direction: NA
Pressure: 30.08"   Gusts: NA
Location:  36.44°N, 87.49°W
Report Text: KCKV 250552Z AUTO 00000KT 1/4SM FG CLR 09/08 A3008 RMK AO2 SLP184 T00890083 10156 20083 402110039 58001
Loading
Personal Weather Stations






























Interactive Weather Map
Tropical Storm Tracking
New forecast layout! Learn more

10-Day Weather Forecast

Advertisements
Track Severe Weather on mobile